createdAt,value
2023-11-26T00:01:03.883Z,99.90
2023-11-26T00:03:30.682Z,99.90
2023-11-26T00:05:57.468Z,1.00
2023-11-26T00:08:24.744Z,1.00
2023-11-26T00:10:51.748Z,1.00
2023-11-26T00:13:18.511Z,1.00
2023-11-26T00:15:45.206Z,1.00
2023-11-26T00:18:12.118Z,1.00
2023-11-26T00:20:39.884Z,1.00
2023-11-26T00:23:07.705Z,1.00
2023-11-26T00:25:34.559Z,1.00
2023-11-26T00:28:01.384Z,1.00
2023-11-26T00:30:28.244Z,1.00
2023-11-26T00:32:54.970Z,1.00
2023-11-26T00:35:22.538Z,1.00
2023-11-26T00:37:49.463Z,1.00
2023-11-26T00:40:16.624Z,1.00
2023-11-26T00:42:43.461Z,1.00
2023-11-26T00:45:10.492Z,1.00
2023-11-26T00:47:37.329Z,1.00
2023-11-26T00:50:05.311Z,1.00
2023-11-26T00:52:33.538Z,1.00
2023-11-26T00:55:00.662Z,1.00
2023-11-26T00:57:27.589Z,1.00
2023-11-26T00:59:54.443Z,1.00
2023-11-26T01:02:24.177Z,1.00
2023-11-26T01:04:51.667Z,1.00
2023-11-26T01:07:18.508Z,1.00
2023-11-26T01:09:45.681Z,1.00
2023-11-26T01:12:12.562Z,1.00
2023-11-26T01:14:39.614Z,1.00
2023-11-26T01:17:06.407Z,1.00
2023-11-26T01:19:33.204Z,1.00
2023-11-26T01:21:59.930Z,1.00
2023-11-26T01:24:27.914Z,1.00
2023-11-26T01:26:54.697Z,1.00
2023-11-26T01:29:21.471Z,1.00
2023-11-26T01:31:48.232Z,1.00
2023-11-26T01:34:15.033Z,1.00
2023-11-26T01:36:42.684Z,1.00
2023-11-26T01:39:10.473Z,1.00
2023-11-26T01:41:37.599Z,1.00
2023-11-26T01:44:04.742Z,1.00
2023-11-26T01:46:32.717Z,1.00
2023-11-26T01:48:59.881Z,1.00
2023-11-26T01:51:30.380Z,1.00
2023-11-26T01:53:57.722Z,1.00
2023-11-26T01:56:25.319Z,1.00
2023-11-26T01:58:52.384Z,1.00
2023-11-26T02:01:22.777Z,1.00
2023-11-26T02:03:50.147Z,1.00
2023-11-26T02:06:17.524Z,1.00
2023-11-26T02:08:45.794Z,1.00
2023-11-26T02:11:12.841Z,1.00
2023-11-26T02:13:50.646Z,1.00
2023-11-26T02:16:17.646Z,1.00
2023-11-26T02:18:44.580Z,1.00
2023-11-26T02:21:12.769Z,1.00
2023-11-26T02:23:39.772Z,1.00
2023-11-26T02:26:07.261Z,1.00
2023-11-26T02:28:34.157Z,1.00
2023-11-26T02:31:00.950Z,5.90
2023-11-26T02:33:27.788Z,16.30
2023-11-26T02:36:14.514Z,28.00
2023-11-26T02:38:41.292Z,50.60
2023-11-26T02:41:10.897Z,58.20
2023-11-26T02:43:38.225Z,68.10
2023-11-26T02:46:05.160Z,79.00
2023-11-26T02:48:32.575Z,97.90
2023-11-26T02:50:59.371Z,99.90
2023-11-26T02:53:26.151Z,99.90
2023-11-26T02:55:53.004Z,99.90
2023-11-26T02:58:19.802Z,99.90
2023-11-26T03:00:48.238Z,99.90
2023-11-26T03:03:15.134Z,99.90
2023-11-26T03:05:43.037Z,99.90
2023-11-26T03:08:33.424Z,99.90
2023-11-26T03:11:18.742Z,99.90
2023-11-26T03:13:45.547Z,99.90
2023-11-26T03:16:12.812Z,99.90
2023-11-26T03:18:40.188Z,99.90
2023-11-26T03:21:08.230Z,99.90
2023-11-26T03:23:34.942Z,99.90
2023-11-26T03:26:01.773Z,99.90
2023-11-26T03:28:28.527Z,99.90
2023-11-26T03:30:57.805Z,99.90
2023-11-26T03:33:25.356Z,99.90
2023-11-26T03:35:52.224Z,99.90
2023-11-26T03:38:19.487Z,99.90
2023-11-26T03:40:46.329Z,99.90
2023-11-26T03:43:14.358Z,99.90
2023-11-26T03:45:42.815Z,99.90
2023-11-26T03:48:10.147Z,1.00
2023-11-26T03:50:36.989Z,1.00
2023-11-26T03:53:05.161Z,1.00
2023-11-26T03:55:34.684Z,1.00
2023-11-26T03:58:01.417Z,1.00
2023-11-26T04:00:28.168Z,1.00
2023-11-26T04:02:55.713Z,1.00
2023-11-26T04:05:22.623Z,1.00
2023-11-26T04:07:49.658Z,1.00
2023-11-26T04:10:24.028Z,1.00
2023-11-26T04:12:54.632Z,1.00
2023-11-26T04:15:23.808Z,1.00
2023-11-26T04:17:50.873Z,1.00
2023-11-26T04:20:17.715Z,1.00
2023-11-26T04:22:45.690Z,1.00
2023-11-26T04:25:12.791Z,1.00
2023-11-26T04:27:39.539Z,1.00
2023-11-26T04:30:08.273Z,1.00
2023-11-26T04:32:35.146Z,1.00
2023-11-26T04:35:01.952Z,1.00
2023-11-26T04:37:28.699Z,1.00
2023-11-26T04:39:55.438Z,1.00
2023-11-26T04:42:22.645Z,1.00
2023-11-26T04:44:49.597Z,1.00
2023-11-26T04:47:16.397Z,1.00
2023-11-26T04:49:43.190Z,1.00
2023-11-26T04:52:09.947Z,1.00
2023-11-26T04:54:37.921Z,1.00
2023-11-26T04:57:05.367Z,1.00
2023-11-26T04:59:32.346Z,1.00
2023-11-26T05:02:00.291Z,1.00
2023-11-26T05:04:27.278Z,1.00
2023-11-26T05:06:54.040Z,1.00
2023-11-26T05:09:22.040Z,1.00
2023-11-26T05:11:48.949Z,1.00
2023-11-26T05:14:15.675Z,1.00
2023-11-26T05:16:42.968Z,1.00
2023-11-26T05:19:09.776Z,1.00
2023-11-26T05:21:36.602Z,1.00
2023-11-26T05:24:05.591Z,1.00
2023-11-26T05:26:32.858Z,1.00
2023-11-26T05:28:59.752Z,1.00
2023-11-26T05:31:26.540Z,1.00
2023-11-26T05:33:53.862Z,1.00
2023-11-26T05:36:20.725Z,1.00
2023-11-26T05:38:48.036Z,1.00
2023-11-26T05:41:14.874Z,1.00
2023-11-26T05:43:41.678Z,1.00
2023-11-26T05:46:08.786Z,1.00
2023-11-26T05:48:36.092Z,1.00
2023-11-26T05:51:06.048Z,1.00
2023-11-26T05:53:33.591Z,1.00
2023-11-26T05:56:00.448Z,1.00
2023-11-26T05:58:27.260Z,2.10
2023-11-26T06:00:55.031Z,20.20
2023-11-26T06:03:22.944Z,28.30
2023-11-26T06:05:49.932Z,47.20
2023-11-26T06:08:17.323Z,58.50
2023-11-26T06:10:44.142Z,68.20
2023-11-26T06:13:10.925Z,75.20
2023-11-26T06:15:37.901Z,90.60
2023-11-26T06:18:04.825Z,98.20
2023-11-26T06:20:31.546Z,99.90
2023-11-26T06:22:58.396Z,99.90
2023-11-26T06:25:25.468Z,99.90
2023-11-26T06:27:52.370Z,99.90
2023-11-26T06:30:19.533Z,99.90
2023-11-26T06:32:46.495Z,99.90
2023-11-26T06:35:13.390Z,99.90
2023-11-26T06:37:40.664Z,99.90
2023-11-26T06:40:09.892Z,99.90
2023-11-26T06:42:40.502Z,99.90
2023-11-26T06:45:11.973Z,99.90
2023-11-26T06:47:39.768Z,99.90
2023-11-26T06:50:07.616Z,99.90
2023-11-26T06:52:35.102Z,99.90
2023-11-26T06:55:02.172Z,99.90
2023-11-26T06:57:29.154Z,99.90
2023-11-26T06:59:56.052Z,99.90
2023-11-26T07:02:23.494Z,99.90
2023-11-26T07:04:50.946Z,99.90
2023-11-26T07:07:23.711Z,99.90
2023-11-26T07:09:50.625Z,99.90
2023-11-26T07:12:17.919Z,99.90
2023-11-26T07:14:45.534Z,99.90
2023-11-26T07:17:15.637Z,99.90
2023-11-26T07:19:43.147Z,99.90
2023-11-26T07:22:10.068Z,99.90
2023-11-26T07:24:36.810Z,99.90
2023-11-26T07:27:03.742Z,99.90
2023-11-26T07:29:33.604Z,99.90
2023-11-26T07:32:00.841Z,99.90
2023-11-26T07:34:27.558Z,99.90
2023-11-26T07:36:54.289Z,99.90
2023-11-26T07:39:21.111Z,99.90
2023-11-26T07:41:48.055Z,99.90
2023-11-26T07:44:15.381Z,99.90
2023-11-26T07:46:42.328Z,99.90
2023-11-26T07:49:09.945Z,99.90
2023-11-26T07:51:39.906Z,99.90
2023-11-26T07:54:09.171Z,99.90
2023-11-26T07:56:42.448Z,99.90
2023-11-26T07:59:09.263Z,99.90
2023-11-26T08:01:36.143Z,99.90
2023-11-26T08:04:03.725Z,99.90
2023-11-26T08:06:32.172Z,99.90
2023-11-26T08:08:59.533Z,99.90
2023-11-26T08:11:30.150Z,99.90
2023-11-26T08:13:57.134Z,99.90
2023-11-26T08:16:26.169Z,99.90
2023-11-26T08:18:58.393Z,99.90
2023-11-26T08:21:25.194Z,1.00
2023-11-26T08:23:55.906Z,1.00
2023-11-26T08:26:33.132Z,1.00
2023-11-26T08:29:00.163Z,1.00
2023-11-26T08:31:29.126Z,1.00
2023-11-26T08:33:57.219Z,1.00
2023-11-26T08:36:24.773Z,1.00
2023-11-26T08:38:52.107Z,1.00
2023-11-26T08:41:23.037Z,1.00
2023-11-26T08:43:51.529Z,1.00
2023-11-26T08:46:20.681Z,1.00
2023-11-26T08:48:47.839Z,1.00
2023-11-26T08:51:15.767Z,1.00
2023-11-26T08:53:42.850Z,1.00
2023-11-26T08:56:09.694Z,1.00
2023-11-26T08:58:36.476Z,1.00
2023-11-26T09:01:03.241Z,1.00
2023-11-26T09:03:30.133Z,1.00
2023-11-26T09:05:56.960Z,1.00
2023-11-26T09:08:23.677Z,1.00
2023-11-26T09:10:51.112Z,1.00
2023-11-26T09:13:18.000Z,1.00
2023-11-26T09:15:44.909Z,1.00
2023-11-26T09:18:11.746Z,1.00
2023-11-26T09:20:38.452Z,1.00
2023-11-26T09:23:05.306Z,1.00
2023-11-26T09:25:33.694Z,1.00
2023-11-26T09:28:00.562Z,1.00
2023-11-26T09:30:27.415Z,1.00
2023-11-26T09:32:55.840Z,1.00
2023-11-26T09:35:22.881Z,1.00
2023-11-26T09:37:49.739Z,1.00
2023-11-26T09:40:16.844Z,1.00
2023-11-26T09:42:55.606Z,1.00
2023-11-26T09:45:22.518Z,1.00
2023-11-26T09:47:50.596Z,1.00
2023-11-26T09:50:17.875Z,1.00
2023-11-26T09:52:49.850Z,1.00
2023-11-26T09:55:16.656Z,1.00
2023-11-26T09:57:43.724Z,1.00
2023-11-26T10:00:14.426Z,1.00
2023-11-26T10:02:44.469Z,1.00
2023-11-26T10:05:27.377Z,1.00
2023-11-26T10:07:55.757Z,1.00
2023-11-26T10:10:24.641Z,1.00
2023-11-26T10:13:01.693Z,1.00
2023-11-26T10:15:31.566Z,1.00
2023-11-26T10:18:00.194Z,1.00
2023-11-26T10:20:27.146Z,1.00
2023-11-26T10:22:54.134Z,1.00
2023-11-26T10:25:21.200Z,1.00
2023-11-26T10:27:49.025Z,1.00
2023-11-26T10:30:30.054Z,1.00
2023-11-26T10:33:08.727Z,1.00
2023-11-26T10:35:55.050Z,1.00
2023-11-26T10:38:26.724Z,1.00
2023-11-26T10:40:56.996Z,1.00
2023-11-26T10:43:24.170Z,1.00
2023-11-26T10:45:52.078Z,1.00
2023-11-26T10:48:21.867Z,1.00
2023-11-26T10:51:00.148Z,1.00
2023-11-26T10:53:57.995Z,1.00
2023-11-26T10:56:35.825Z,1.00
2023-11-26T10:59:03.585Z,1.00
2023-11-26T11:01:30.561Z,1.00
2023-11-26T11:03:58.517Z,1.00
2023-11-26T11:06:26.632Z,1.00
2023-11-26T11:08:56.447Z,1.00
2023-11-26T11:11:44.343Z,1.00
2023-11-26T11:14:12.586Z,1.00
2023-11-26T11:16:39.822Z,99.90
2023-11-26T11:19:06.617Z,99.90
2023-11-26T11:21:47.927Z,99.90
2023-11-26T11:24:21.125Z,99.90
2023-11-26T11:26:48.633Z,99.90
2023-11-26T11:29:34.294Z,81.30
2023-11-26T11:32:02.992Z,11.30
2023-11-26T11:34:30.544Z,1.00
2023-11-26T11:36:58.901Z,1.00
2023-11-26T11:39:47.823Z,1.00
2023-11-26T11:42:18.612Z,1.00
2023-11-26T11:44:45.815Z,1.00
2023-11-26T11:47:33.323Z,1.00
2023-11-26T11:50:00.300Z,1.00
2023-11-26T11:52:27.071Z,99.90
2023-11-26T11:55:23.110Z,99.90
2023-11-26T11:57:50.348Z,99.90
2023-11-26T12:00:17.907Z,99.90
2023-11-26T12:02:46.217Z,99.90
2023-11-26T12:05:25.254Z,99.90
2023-11-26T12:07:53.582Z,99.90
2023-11-26T12:10:28.695Z,94.80
2023-11-26T12:13:05.695Z,59.10
2023-11-26T12:15:32.928Z,1.00
2023-11-26T12:18:01.664Z,1.00
2023-11-26T12:20:29.313Z,1.00
2023-11-26T12:22:56.971Z,1.00
2023-11-26T12:25:23.984Z,1.00
2023-11-26T12:28:04.179Z,1.00
2023-11-26T12:30:31.389Z,1.00
2023-11-26T12:32:58.849Z,1.00
2023-11-26T12:35:28.705Z,1.00
2023-11-26T12:37:58.199Z,1.00
2023-11-26T12:40:25.577Z,1.00
2023-11-26T12:42:52.793Z,1.00
2023-11-26T12:45:19.869Z,1.00
2023-11-26T12:47:56.950Z,1.00
2023-11-26T12:50:25.051Z,1.00
2023-11-26T12:52:53.091Z,1.00
2023-11-26T12:55:20.260Z,1.00
2023-11-26T12:57:47.241Z,1.00
2023-11-26T13:00:15.419Z,99.90
2023-11-26T13:02:44.205Z,99.90
2023-11-26T13:05:31.071Z,99.90
2023-11-26T13:07:59.101Z,99.90
2023-11-26T13:10:56.838Z,99.90
2023-11-26T13:13:33.782Z,99.90
2023-11-26T13:16:02.962Z,99.90
2023-11-26T13:18:30.656Z,99.90
2023-11-26T13:20:59.849Z,99.90
2023-11-26T13:23:26.716Z,99.90
2023-11-26T13:25:54.719Z,99.90
2023-11-26T13:28:22.193Z,99.90
2023-11-26T13:30:50.333Z,99.90
2023-11-26T13:33:18.585Z,99.90
2023-11-26T13:35:46.288Z,99.90
2023-11-26T13:38:14.003Z,99.90
2023-11-26T13:40:42.827Z,99.90
2023-11-26T13:43:12.523Z,99.90
2023-11-26T13:45:43.036Z,99.90
2023-11-26T13:48:11.966Z,99.90
2023-11-26T13:50:40.139Z,99.90
2023-11-26T13:53:08.252Z,99.90
2023-11-26T13:55:36.022Z,99.90
2023-11-26T13:58:04.221Z,89.70
2023-11-26T14:00:32.941Z,88.10
2023-11-26T14:03:00.976Z,94.10
2023-11-26T14:05:28.535Z,95.50
2023-11-26T14:07:55.449Z,87.60
2023-11-26T14:10:23.925Z,97.00
2023-11-26T14:12:59.606Z,98.80
2023-11-26T14:15:27.896Z,95.70
2023-11-26T14:17:56.780Z,99.90
2023-11-26T14:20:24.115Z,99.90
2023-11-26T14:22:54.810Z,99.90
2023-11-26T14:25:22.085Z,99.90
2023-11-26T14:27:50.924Z,99.90
2023-11-26T14:30:19.505Z,99.90
2023-11-26T14:32:50.848Z,99.90
2023-11-26T14:35:18.109Z,99.90
2023-11-26T14:37:45.078Z,99.90
2023-11-26T14:40:14.059Z,99.90
2023-11-26T14:42:45.510Z,99.90
2023-11-26T14:45:13.231Z,99.90
2023-11-26T14:47:43.106Z,99.90
2023-11-26T14:50:10.433Z,99.90
2023-11-26T14:52:39.602Z,99.90
2023-11-26T14:55:11.292Z,99.90
2023-11-26T14:57:38.078Z,99.90
2023-11-26T15:00:07.936Z,99.90
2023-11-26T15:02:34.720Z,99.90
2023-11-26T15:05:01.517Z,99.90
2023-11-26T15:07:28.584Z,99.90
2023-11-26T15:09:55.405Z,99.90
2023-11-26T15:12:22.239Z,99.90
2023-11-26T15:14:48.974Z,99.90
2023-11-26T15:17:15.833Z,99.90
2023-11-26T15:19:42.740Z,99.90
2023-11-26T15:22:09.610Z,99.90
2023-11-26T15:24:38.376Z,99.90
2023-11-26T15:27:06.711Z,99.90
2023-11-26T15:29:34.424Z,99.90
2023-11-26T15:32:07.204Z,99.90
2023-11-26T15:34:35.515Z,99.90
2023-11-26T15:37:02.615Z,99.90
2023-11-26T15:39:30.219Z,99.90
2023-11-26T15:42:00.777Z,99.90
2023-11-26T15:44:29.501Z,99.90
2023-11-26T15:46:58.421Z,99.90
2023-11-26T15:49:26.533Z,99.90
2023-11-26T15:51:54.014Z,99.90
2023-11-26T15:54:21.036Z,99.90
2023-11-26T15:56:48.005Z,99.90
2023-11-26T15:59:14.931Z,99.90
2023-11-26T16:01:42.100Z,99.90
2023-11-26T16:04:10.795Z,99.90
2023-11-26T16:06:37.736Z,1.00
2023-11-26T16:09:04.593Z,1.00
2023-11-26T16:11:32.116Z,1.00
2023-11-26T16:13:59.892Z,1.00
2023-11-26T16:16:26.664Z,1.00
2023-11-26T16:18:53.554Z,1.00
2023-11-26T16:21:20.686Z,1.00
2023-11-26T16:23:49.021Z,1.00
2023-11-26T16:26:15.797Z,1.00
2023-11-26T16:28:42.643Z,1.00
2023-11-26T16:31:10.309Z,1.00
2023-11-26T16:33:54.264Z,1.00
2023-11-26T16:36:23.693Z,1.00
2023-11-26T16:38:50.850Z,1.00
2023-11-26T16:41:19.223Z,1.00
2023-11-26T16:43:48.269Z,1.00
2023-11-26T16:46:16.054Z,1.00
2023-11-26T16:48:43.947Z,1.00
2023-11-26T16:51:10.950Z,1.00
2023-11-26T16:53:37.814Z,1.00
2023-11-26T16:56:06.126Z,1.00
2023-11-26T16:58:34.001Z,1.00
2023-11-26T17:01:03.077Z,1.00
2023-11-26T17:03:33.980Z,1.00
2023-11-26T17:06:01.812Z,1.00
2023-11-26T17:08:29.505Z,1.00
2023-11-26T17:11:00.476Z,9.80
2023-11-26T17:13:28.967Z,32.10
2023-11-26T17:15:55.918Z,51.80
2023-11-26T17:18:22.950Z,93.40
2023-11-26T17:20:49.777Z,99.20
2023-11-26T17:23:17.371Z,99.90
2023-11-26T17:25:47.630Z,99.90
2023-11-26T17:28:15.854Z,99.90
2023-11-26T17:30:43.165Z,99.90
2023-11-26T17:33:10.597Z,99.90
2023-11-26T17:35:37.404Z,99.90
2023-11-26T17:38:04.150Z,99.90
2023-11-26T17:40:30.932Z,99.90
2023-11-26T17:42:57.778Z,99.90
2023-11-26T17:45:24.883Z,99.90
2023-11-26T17:47:52.121Z,99.90
2023-11-26T17:50:18.901Z,99.90
2023-11-26T17:52:53.040Z,99.90
2023-11-26T17:55:24.987Z,99.90
2023-11-26T17:57:52.081Z,99.90
2023-11-26T18:00:19.678Z,99.90
2023-11-26T18:02:46.641Z,99.90
2023-11-26T18:05:13.536Z,99.90
2023-11-26T18:07:40.514Z,99.90
2023-11-26T18:10:07.945Z,99.90
2023-11-26T18:12:34.743Z,99.90
2023-11-26T18:15:01.554Z,99.90
2023-11-26T18:17:28.387Z,99.90
2023-11-26T18:19:56.200Z,99.90
2023-11-26T18:22:23.133Z,99.90
2023-11-26T18:24:50.033Z,99.90
2023-11-26T18:27:16.916Z,99.90
2023-11-26T18:29:46.306Z,99.90
2023-11-26T18:32:13.448Z,99.90
2023-11-26T18:34:41.550Z,99.90
2023-11-26T18:37:08.436Z,99.90
2023-11-26T18:39:39.943Z,99.90
2023-11-26T18:42:09.152Z,99.90
2023-11-26T18:44:36.022Z,99.90
2023-11-26T18:47:03.756Z,99.90
2023-11-26T18:49:30.489Z,99.90
2023-11-26T18:51:57.623Z,99.90
2023-11-26T18:54:24.388Z,99.90
2023-11-26T18:56:53.171Z,99.90
2023-11-26T18:59:20.975Z,99.90
2023-11-26T19:01:47.826Z,99.90
2023-11-26T19:04:14.742Z,99.90
2023-11-26T19:06:41.530Z,99.90
2023-11-26T19:09:08.609Z,99.90
2023-11-26T19:11:35.681Z,99.90
2023-11-26T19:14:02.465Z,99.90
2023-11-26T19:16:29.354Z,99.90
2023-11-26T19:18:57.303Z,99.90
2023-11-26T19:21:24.545Z,99.90
2023-11-26T19:23:51.927Z,99.90
2023-11-26T19:26:19.759Z,99.90
2023-11-26T19:28:50.770Z,99.90
2023-11-26T19:31:23.387Z,99.90
2023-11-26T19:33:50.995Z,99.90
2023-11-26T19:36:18.693Z,99.90
2023-11-26T19:38:46.188Z,99.90
2023-11-26T19:41:13.435Z,99.90
2023-11-26T19:43:42.203Z,99.90
2023-11-26T19:46:13.578Z,99.90
2023-11-26T19:48:41.508Z,99.90
2023-11-26T19:51:17.759Z,99.90
2023-11-26T19:53:45.810Z,99.90
2023-11-26T19:56:15.789Z,99.90
2023-11-26T19:58:43.681Z,99.90
2023-11-26T20:01:14.424Z,99.90
2023-11-26T20:03:42.130Z,99.90
2023-11-26T20:06:09.397Z,99.90
2023-11-26T20:08:36.338Z,99.90
2023-11-26T20:11:04.641Z,99.90
2023-11-26T20:13:32.646Z,99.90
2023-11-26T20:15:59.429Z,99.90
2023-11-26T20:18:26.358Z,99.90
2023-11-26T20:20:53.268Z,99.90
2023-11-26T20:23:22.499Z,99.90
2023-11-26T20:25:50.662Z,99.90
2023-11-26T20:28:17.765Z,99.90
2023-11-26T20:30:49.140Z,99.90
2023-11-26T20:33:18.632Z,99.90
2023-11-26T20:35:45.843Z,99.90
2023-11-26T20:38:12.732Z,99.90
2023-11-26T20:40:39.964Z,99.90
2023-11-26T20:43:06.835Z,99.90
2023-11-26T20:45:34.286Z,99.90
2023-11-26T20:48:01.298Z,99.90
2023-11-26T20:50:28.040Z,99.90
2023-11-26T20:52:54.760Z,99.90
2023-11-26T20:55:22.206Z,99.90
2023-11-26T20:57:49.014Z,99.90
2023-11-26T21:00:16.170Z,99.90
2023-11-26T21:02:43.226Z,99.90
2023-11-26T21:05:10.344Z,99.90
2023-11-26T21:07:37.842Z,99.90
2023-11-26T21:10:07.188Z,99.90
2023-11-26T21:12:35.079Z,99.90
2023-11-26T21:15:02.121Z,99.90
2023-11-26T21:17:29.021Z,99.90
2023-11-26T21:19:58.006Z,99.90
2023-11-26T21:22:24.755Z,99.90
2023-11-26T21:24:52.488Z,99.90
2023-11-26T21:27:19.549Z,99.90
2023-11-26T21:29:46.295Z,99.90
2023-11-26T21:32:14.918Z,99.90
2023-11-26T21:34:45.282Z,99.90
2023-11-26T21:37:14.133Z,99.90
2023-11-26T21:39:42.987Z,99.90
2023-11-26T21:42:10.103Z,99.90
2023-11-26T21:44:37.406Z,99.90
2023-11-26T21:47:04.363Z,99.90
2023-11-26T21:49:31.125Z,99.90
2023-11-26T21:51:57.929Z,99.90
2023-11-26T21:54:24.753Z,99.90
2023-11-26T21:56:51.480Z,1.00
2023-11-26T21:59:18.317Z,1.00
2023-11-26T22:01:45.174Z,1.00
2023-11-26T22:04:12.092Z,1.00
2023-11-26T22:06:38.876Z,1.00
2023-11-26T22:09:05.979Z,1.00
2023-11-26T22:11:32.870Z,1.00
2023-11-26T22:13:59.634Z,1.00
2023-11-26T22:16:28.094Z,1.00
2023-11-26T22:18:55.055Z,1.00
2023-11-26T22:21:22.631Z,99.90
2023-11-26T22:23:50.575Z,99.90
2023-11-26T22:26:17.735Z,99.90
2023-11-26T22:28:44.534Z,99.90
2023-11-26T22:31:16.141Z,99.90
2023-11-26T22:33:43.090Z,99.90
2023-11-26T22:36:12.022Z,99.90
2023-11-26T22:38:39.163Z,99.90
2023-11-26T22:41:06.101Z,99.90
2023-11-26T22:43:33.004Z,99.90
2023-11-26T22:46:00.006Z,99.90
2023-11-26T22:48:26.910Z,99.90
2023-11-26T22:50:53.804Z,99.90
2023-11-26T22:53:23.515Z,99.90
2023-11-26T22:55:50.265Z,99.90
2023-11-26T22:58:17.024Z,99.90
2023-11-26T23:00:43.857Z,99.90
2023-11-26T23:03:10.819Z,99.90
2023-11-26T23:05:37.552Z,99.90
2023-11-26T23:08:04.442Z,99.90
2023-11-26T23:10:31.138Z,99.90
2023-11-26T23:12:57.905Z,99.90
2023-11-26T23:15:24.741Z,99.90
2023-11-26T23:17:51.670Z,99.90
2023-11-26T23:20:21.614Z,99.90
2023-11-26T23:22:48.618Z,99.90
2023-11-26T23:25:15.510Z,99.90
2023-11-26T23:27:42.289Z,99.90
2023-11-26T23:30:09.484Z,99.90
2023-11-26T23:32:36.602Z,99.90
2023-11-26T23:35:03.472Z,99.90
2023-11-26T23:37:30.218Z,99.90
2023-11-26T23:39:57.191Z,99.90
2023-11-26T23:42:24.777Z,99.90
2023-11-26T23:44:51.704Z,99.90
2023-11-26T23:47:18.555Z,1.00
2023-11-26T23:49:45.444Z,1.00
2023-11-26T23:52:12.334Z,1.00
2023-11-26T23:54:39.208Z,1.00
2023-11-26T23:57:06.003Z,1.00
2023-11-26T23:59:32.729Z,1.00
